Ignasino, Russia
Current Conditions -  °F | °C
As of 9:00 AM on Saturday 25 Oct 2014 (Local Time) from UHBB Reporting Station
Overcast Overcast  
Wind Chill: 27°   Ceiling: 400
Heat Index: 27°   Visibility: 4mi
Dew Point: 25°   Wind: 2mph
Humidity: 93%   Direction: NA
Pressure: 29.91"   Gusts: NA
Location:  53.47°N, 122.4°E
Report Text: UHBB 250000Z VRB01MPS 6000 BKN004 OVC200 M03/M04 Q1013 TEMPOBKN003 RMK QBB140 QFE742/0990 36090060
Loading
Personal Weather Stations






























Interactive Weather Map
Tropical Storm Tracking
New forecast layout! Learn more

10-Day Weather Forecast

Advertisements
Track Severe Weather on mobile